sensor_id;sensor_type;location;lat;lon;timestamp;pressure;altitude;pressure_sealevel;temperature;humidity
58534;BME280;44109;52.398;7.024;2024-02-28T00:00:49;101782.38;;;4.81;100.00
58534;BME280;44109;52.398;7.024;2024-02-28T00:03:17;101783.28;;;4.91;100.00
58534;BME280;44109;52.398;7.024;2024-02-28T00:05:47;101781.53;;;4.81;100.00
58534;BME280;44109;52.398;7.024;2024-02-28T00:08:14;101770.97;;;4.88;100.00
58534;BME280;44109;52.398;7.024;2024-02-28T00:10:43;101778.72;;;4.86;100.00
58534;BME280;44109;52.398;7.024;2024-02-28T00:13:11;101767.91;;;4.76;100.00
58534;BME280;44109;52.398;7.024;2024-02-28T00:15:39;101771.88;;;4.83;100.00
58534;BME280;44109;52.398;7.024;2024-02-28T00:18:08;101765.16;;;4.90;100.00
58534;BME280;44109;52.398;7.024;2024-02-28T00:20:36;101760.38;;;4.95;100.00
58534;BME280;44109;52.398;7.024;2024-02-28T00:23:07;101765.66;;;4.92;100.00
58534;BME280;44109;52.398;7.024;2024-02-28T00:25:34;101762.72;;;4.88;100.00
58534;BME280;44109;52.398;7.024;2024-02-28T00:28:03;101760.66;;;4.94;100.00
58534;BME280;44109;52.398;7.024;2024-02-28T00:30:32;101763.94;;;4.96;100.00
58534;BME280;44109;52.398;7.024;2024-02-28T00:33:01;101763.63;;;4.97;100.00
58534;BME280;44109;52.398;7.024;2024-02-28T00:35:32;101727.91;;;4.83;100.00
58534;BME280;44109;52.398;7.024;2024-02-28T00:38:00;101758.00;;;5.02;100.00
58534;BME280;44109;52.398;7.024;2024-02-28T00:40:30;101766.28;;;4.89;100.00
58534;BME280;44109;52.398;7.024;2024-02-28T00:42:58;101762.03;;;4.82;100.00
58534;BME280;44109;52.398;7.024;2024-02-28T00:45:26;101764.34;;;4.89;100.00
58534;BME280;44109;52.398;7.024;2024-02-28T00:47:53;101762.59;;;4.93;100.00
58534;BME280;44109;52.398;7.024;2024-02-28T00:50:22;101756.72;;;4.86;100.00
58534;BME280;44109;52.398;7.024;2024-02-28T00:52:51;101756.09;;;4.89;100.00
58534;BME280;44109;52.398;7.024;2024-02-28T00:55:20;101748.03;;;4.93;100.00
58534;BME280;44109;52.398;7.024;2024-02-28T00:57:49;101743.69;;;4.92;100.00
58534;BME280;44109;52.398;7.024;2024-02-28T01:00:20;101725.50;;;4.54;100.00
58534;BME280;44109;52.398;7.024;2024-02-28T01:03:07;101765.88;;;4.26;100.00
58534;BME280;44109;52.398;7.024;2024-02-28T01:05:41;101765.28;;;4.29;100.00
58534;BME280;44109;52.398;7.024;2024-02-28T01:08:14;101759.28;;;4.27;100.00
58534;BME280;44109;52.398;7.024;2024-02-28T01:10:43;101760.78;;;4.20;100.00
58534;BME280;44109;52.398;7.024;2024-02-28T01:13:13;101757.94;;;4.25;100.00
58534;BME280;44109;52.398;7.024;2024-02-28T01:15:41;101767.31;;;4.24;100.00
58534;BME280;44109;52.398;7.024;2024-02-28T01:18:09;101765.97;;;4.21;100.00
58534;BME280;44109;52.398;7.024;2024-02-28T01:20:37;101766.06;;;4.16;100.00
58534;BME280;44109;52.398;7.024;2024-02-28T01:23:05;101766.38;;;4.15;100.00
58534;BME280;44109;52.398;7.024;2024-02-28T01:25:32;101770.16;;;4.19;100.00
58534;BME280;44109;52.398;7.024;2024-02-28T01:28:01;101769.94;;;4.15;100.00
58534;BME280;44109;52.398;7.024;2024-02-28T01:30:30;101763.81;;;4.04;100.00
58534;BME280;44109;52.398;7.024;2024-02-28T01:32:58;101719.66;;;3.87;100.00
58534;BME280;44109;52.398;7.024;2024-02-28T01:35:26;101760.56;;;4.16;100.00
58534;BME280;44109;52.398;7.024;2024-02-28T01:37:54;101764.34;;;4.20;100.00
58534;BME280;44109;52.398;7.024;2024-02-28T01:40:23;101766.16;;;4.11;100.00
58534;BME280;44109;52.398;7.024;2024-02-28T01:42:54;101768.31;;;4.14;100.00
58534;BME280;44109;52.398;7.024;2024-02-28T01:45:23;101767.09;;;4.20;100.00
58534;BME280;44109;52.398;7.024;2024-02-28T01:47:54;101760.38;;;4.26;100.00
58534;BME280;44109;52.398;7.024;2024-02-28T01:50:23;101764.97;;;4.31;100.00
58534;BME280;44109;52.398;7.024;2024-02-28T01:52:51;101767.31;;;4.38;100.00
58534;BME280;44109;52.398;7.024;2024-02-28T01:55:20;101765.97;;;4.35;100.00
58534;BME280;44109;52.398;7.024;2024-02-28T01:57:48;101765.38;;;4.38;100.00
58534;BME280;44109;52.398;7.024;2024-02-28T02:00:17;101762.84;;;4.42;100.00
58534;BME280;44109;52.398;7.024;2024-02-28T02:02:47;101765.50;;;4.47;100.00
58534;BME280;44109;52.398;7.024;2024-02-28T02:05:17;101756.94;;;4.35;100.00
58534;BME280;44109;52.398;7.024;2024-02-28T02:07:47;101760.66;;;4.11;100.00
58534;BME280;44109;52.398;7.024;2024-02-28T02:10:16;101769.63;;;4.17;100.00
58534;BME280;44109;52.398;7.024;2024-02-28T02:12:45;101765.47;;;4.19;100.00
58534;BME280;44109;52.398;7.024;2024-02-28T02:15:13;101764.63;;;4.05;100.00
58534;BME280;44109;52.398;7.024;2024-02-28T02:17:41;101762.91;;;4.09;100.00
58534;BME280;44109;52.398;7.024;2024-02-28T02:20:11;101761.78;;;4.10;100.00
58534;BME280;44109;52.398;7.024;2024-02-28T02:22:44;101751.94;;;4.09;100.00
58534;BME280;44109;52.398;7.024;2024-02-28T02:25:12;101756.06;;;3.93;100.00
58534;BME280;44109;52.398;7.024;2024-02-28T02:27:40;101759.06;;;3.77;100.00
58534;BME280;44109;52.398;7.024;2024-02-28T02:30:09;101769.19;;;3.96;100.00
58534;BME280;44109;52.398;7.024;2024-02-28T02:32:37;101769.69;;;3.98;100.00
58534;BME280;44109;52.398;7.024;2024-02-28T02:35:06;101765.22;;;4.02;100.00
58534;BME280;44109;52.398;7.024;2024-02-28T02:37:34;101763.41;;;4.11;100.00
58534;BME280;44109;52.398;7.024;2024-02-28T02:40:04;101758.34;;;4.18;100.00
58534;BME280;44109;52.398;7.024;2024-02-28T02:42:33;101760.38;;;4.26;100.00
58534;BME280;44109;52.398;7.024;2024-02-28T02:45:06;101763.44;;;4.39;100.00
58534;BME280;44109;52.398;7.024;2024-02-28T02:47:35;101766.19;;;4.39;100.00
58534;BME280;44109;52.398;7.024;2024-02-28T02:50:04;101762.84;;;4.42;100.00
58534;BME280;44109;52.398;7.024;2024-02-28T02:52:35;101766.09;;;4.44;100.00
58534;BME280;44109;52.398;7.024;2024-02-28T02:55:06;101767.94;;;4.48;100.00
58534;BME280;44109;52.398;7.024;2024-02-28T02:57:35;101772.22;;;4.54;100.00
58534;BME280;44109;52.398;7.024;2024-02-28T03:00:04;101770.19;;;4.60;100.00
58534;BME280;44109;52.398;7.024;2024-02-28T03:02:35;101778.69;;;4.58;100.00
58534;BME280;44109;52.398;7.024;2024-02-28T03:05:06;101767.44;;;4.60;100.00
58534;BME280;44109;52.398;7.024;2024-02-28T03:07:35;101767.94;;;4.62;100.00
58534;BME280;44109;52.398;7.024;2024-02-28T03:10:06;101763.88;;;4.60;100.00
58534;BME280;44109;52.398;7.024;2024-02-28T03:12:35;101763.56;;;4.61;100.00
58534;BME280;44109;52.398;7.024;2024-02-28T03:15:05;101761.94;;;4.60;100.00
58534;BME280;44109;52.398;7.024;2024-02-28T03:17:35;101755.31;;;4.61;100.00
58534;BME280;44109;52.398;7.024;2024-02-28T03:20:04;101766.78;;;4.63;100.00
58534;BME280;44109;52.398;7.024;2024-02-28T03:22:36;101769.38;;;4.60;100.00
58534;BME280;44109;52.398;7.024;2024-02-28T03:25:07;101712.59;;;4.27;100.00
58534;BME280;44109;52.398;7.024;2024-02-28T03:27:36;101767.72;;;4.58;100.00
58534;BME280;44109;52.398;7.024;2024-02-28T03:30:06;101768.94;;;4.66;100.00
58534;BME280;44109;52.398;7.024;2024-02-28T03:32:36;101767.94;;;4.62;100.00
58534;BME280;44109;52.398;7.024;2024-02-28T03:35:06;101777.09;;;4.57;100.00
58534;BME280;44109;52.398;7.024;2024-02-28T03:37:38;101769.75;;;4.53;100.00
58534;BME280;44109;52.398;7.024;2024-02-28T03:40:09;101768.34;;;4.55;100.00
58534;BME280;44109;52.398;7.024;2024-02-28T03:42:37;101767.53;;;4.55;100.00
58534;BME280;44109;52.398;7.024;2024-02-28T03:45:06;101769.97;;;4.56;100.00
58534;BME280;44109;52.398;7.024;2024-02-28T03:47:35;101774.66;;;4.56;100.00
58534;BME280;44109;52.398;7.024;2024-02-28T03:50:03;101761.81;;;4.38;100.00
58534;BME280;44109;52.398;7.024;2024-02-28T03:52:32;101766.19;;;4.39;100.00
58534;BME280;44109;52.398;7.024;2024-02-28T03:54:59;101773.84;;;4.42;100.00
58534;BME280;44109;52.398;7.024;2024-02-28T03:57:29;101776.38;;;4.52;100.00
58534;BME280;44109;52.398;7.024;2024-02-28T03:59:57;101781.44;;;4.45;100.00
58534;BME280;44109;52.398;7.024;2024-02-28T04:02:25;101785.44;;;4.52;100.00
58534;BME280;44109;52.398;7.024;2024-02-28T04:04:53;101782.69;;;4.52;100.00
58534;BME280;44109;52.398;7.024;2024-02-28T04:07:21;101779.31;;;4.42;100.00
58534;BME280;44109;52.398;7.024;2024-02-28T04:09:49;101778.09;;;4.48;100.00
58534;BME280;44109;52.398;7.024;2024-02-28T04:12:18;101780.34;;;4.32;100.00
58534;BME280;44109;52.398;7.024;2024-02-28T04:14:48;101778.41;;;4.32;100.00
58534;BME280;44109;52.398;7.024;2024-02-28T04:17:15;101775.78;;;4.41;100.00
58534;BME280;44109;52.398;7.024;2024-02-28T04:19:44;101777.88;;;4.44;100.00
58534;BME280;44109;52.398;7.024;2024-02-28T04:22:12;101778.69;;;4.45;100.00
58534;BME280;44109;52.398;7.024;2024-02-28T04:24:42;101777.19;;;4.39;100.00
58534;BME280;44109;52.398;7.024;2024-02-28T04:27:10;101783.38;;;4.30;100.00
58534;BME280;44109;52.398;7.024;2024-02-28T04:29:38;101782.03;;;4.14;100.00
58534;BME280;44109;52.398;7.024;2024-02-28T04:32:09;101769.03;;;4.33;100.00
58534;BME280;44109;52.398;7.024;2024-02-28T04:34:37;101766.88;;;4.17;100.00
58534;BME280;44109;52.398;7.024;2024-02-28T04:37:06;101768.81;;;4.16;100.00
58534;BME280;44109;52.398;7.024;2024-02-28T04:39:34;101772.09;;;4.18;100.00
58534;BME280;44109;52.398;7.024;2024-02-28T04:42:03;101776.25;;;4.29;100.00
58534;BME280;44109;52.398;7.024;2024-02-28T04:44:32;101762.72;;;4.19;100.00
58534;BME280;44109;52.398;7.024;2024-02-28T04:47:01;101782.34;;;4.26;100.00
58534;BME280;44109;52.398;7.024;2024-02-28T04:49:31;101782.97;;;4.23;100.00
58534;BME280;44109;52.398;7.024;2024-02-28T04:51:59;101781.66;;;4.35;100.00
58534;BME280;44109;52.398;7.024;2024-02-28T04:54:27;101782.88;;;4.28;100.00
58534;BME280;44109;52.398;7.024;2024-02-28T04:56:56;101783.91;;;4.32;100.00
58534;BME280;44109;52.398;7.024;2024-02-28T04:59:23;101779.44;;;4.37;100.00
58534;BME280;44109;52.398;7.024;2024-02-28T05:01:52;101784.16;;;4.17;100.00
58534;BME280;44109;52.398;7.024;2024-02-28T05:04:20;101785.72;;;4.23;100.00
58534;BME280;44109;52.398;7.024;2024-02-28T05:06:49;101800.03;;;4.20;100.00
58534;BME280;44109;52.398;7.024;2024-02-28T05:09:18;101800.44;;;4.14;100.00
58534;BME280;44109;52.398;7.024;2024-02-28T05:11:46;101800.47;;;4.27;100.00
58534;BME280;44109;52.398;7.024;2024-02-28T05:14:14;101804.50;;;4.16;100.00
58534;BME280;44109;52.398;7.024;2024-02-28T05:16:42;101801.66;;;4.21;100.00
58534;BME280;44109;52.398;7.024;2024-02-28T05:19:10;101814.19;;;4.14;100.00
58534;BME280;44109;52.398;7.024;2024-02-28T05:21:42;101817.78;;;4.28;100.00
58534;BME280;44109;52.398;7.024;2024-02-28T05:24:11;101818.50;;;4.01;100.00
58534;BME280;44109;52.398;7.024;2024-02-28T05:26:39;101820.66;;;4.18;100.00
58534;BME280;44109;52.398;7.024;2024-02-28T05:29:08;101821.41;;;4.23;100.00
58534;BME280;44109;52.398;7.024;2024-02-28T05:31:36;101813.78;;;4.20;100.00
58534;BME280;44109;52.398;7.024;2024-02-28T05:34:04;101807.16;;;4.21;100.00
58534;BME280;44109;52.398;7.024;2024-02-28T05:36:32;101809.22;;;4.29;100.00
58534;BME280;44109;52.398;7.024;2024-02-28T05:39:00;101812.09;;;4.38;100.00
58534;BME280;44109;52.398;7.024;2024-02-28T05:41:33;101816.34;;;4.30;100.00
58534;BME280;44109;52.398;7.024;2024-02-28T05:44:01;101808.44;;;4.43;100.00
58534;BME280;44109;52.398;7.024;2024-02-28T05:46:28;101792.34;;;4.36;100.00
58534;BME280;44109;52.398;7.024;2024-02-28T05:48:56;101807.63;;;4.56;100.00
58534;BME280;44109;52.398;7.024;2024-02-28T05:51:24;101804.06;;;4.42;100.00
58534;BME280;44109;52.398;7.024;2024-02-28T05:53:52;101802.44;;;4.54;100.00
58534;BME280;44109;52.398;7.024;2024-02-28T05:56:20;101807.81;;;4.46;100.00
58534;BME280;44109;52.398;7.024;2024-02-28T05:58:50;101803.63;;;4.48;100.00
58534;BME280;44109;52.398;7.024;2024-02-28T06:01:18;101803.72;;;4.29;100.00
58534;BME280;44109;52.398;7.024;2024-02-28T06:03:47;101803.38;;;4.17;100.00
58534;BME280;44109;52.398;7.024;2024-02-28T06:06:17;101801.09;;;4.38;100.00
58534;BME280;44109;52.398;7.024;2024-02-28T06:08:44;101809.03;;;4.40;100.00
58534;BME280;44109;52.398;7.024;2024-02-28T06:11:12;101814.94;;;4.47;100.00
58534;BME280;44109;52.398;7.024;2024-02-28T06:13:40;101808.63;;;4.46;100.00
58534;BME280;44109;52.398;7.024;2024-02-28T06:16:14;101826.66;;;4.52;100.00
58534;BME280;44109;52.398;7.024;2024-02-28T06:18:44;101822.06;;;4.62;100.00
58534;BME280;44109;52.398;7.024;2024-02-28T06:21:12;101832.25;;;4.47;100.00
58534;BME280;44109;52.398;7.024;2024-02-28T06:23:41;101833.88;;;4.48;100.00
58534;BME280;44109;52.398;7.024;2024-02-28T06:26:10;101840.56;;;4.42;100.00
58534;BME280;44109;52.398;7.024;2024-02-28T06:28:44;101847.31;;;4.50;100.00
58534;BME280;44109;52.398;7.024;2024-02-28T06:31:15;101840.50;;;4.61;100.00
58534;BME280;44109;52.398;7.024;2024-02-28T06:33:43;101847.63;;;4.62;100.00
58534;BME280;44109;52.398;7.024;2024-02-28T06:36:11;101848.53;;;4.71;100.00
58534;BME280;44109;52.398;7.024;2024-02-28T06:38:41;101849.78;;;4.79;100.00
58534;BME280;44109;52.398;7.024;2024-02-28T06:41:08;101857.72;;;4.80;100.00
58534;BME280;44109;52.398;7.024;2024-02-28T06:43:36;101860.34;;;4.86;100.00
58534;BME280;44109;52.398;7.024;2024-02-28T06:46:04;101861.38;;;4.90;100.00
58534;BME280;44109;52.398;7.024;2024-02-28T06:48:33;101865.34;;;4.83;100.00
58534;BME280;44109;52.398;7.024;2024-02-28T06:51:01;101865.47;;;4.92;100.00
58534;BME280;44109;52.398;7.024;2024-02-28T06:53:30;101870.53;;;4.99;100.00
58534;BME280;44109;52.398;7.024;2024-02-28T06:55:58;101871.66;;;4.98;100.00
58534;BME280;44109;52.398;7.024;2024-02-28T06:58:26;101863.63;;;5.01;100.00
58534;BME280;44109;52.398;7.024;2024-02-28T07:00:54;101873.19;;;5.04;100.00
58534;BME280;44109;52.398;7.024;2024-02-28T07:03:22;101878.06;;;5.07;100.00
58534;BME280;44109;52.398;7.024;2024-02-28T07:05:51;101871.56;;;5.03;100.00
58534;BME280;44109;52.398;7.024;2024-02-28T07:08:19;101877.88;;;5.03;100.00
58534;BME280;44109;52.398;7.024;2024-02-28T07:10:47;101885.72;;;5.10;100.00
58534;BME280;44109;52.398;7.024;2024-02-28T07:13:20;101889.50;;;5.14;100.00
58534;BME280;44109;52.398;7.024;2024-02-28T07:15:48;101895.00;;;5.14;100.00
58534;BME280;44109;52.398;7.024;2024-02-28T07:18:16;101891.00;;;5.20;100.00
58534;BME280;44109;52.398;7.024;2024-02-28T07:20:44;101889.38;;;5.19;100.00
58534;BME280;44109;52.398;7.024;2024-02-28T07:23:13;101894.19;;;5.27;100.00
58534;BME280;44109;52.398;7.024;2024-02-28T07:25:41;101892.94;;;5.33;100.00
58534;BME280;44109;52.398;7.024;2024-02-28T07:28:09;101889.75;;;5.40;100.00
58534;BME280;44109;52.398;7.024;2024-02-28T07:30:38;101896.47;;;5.48;100.00
58534;BME280;44109;52.398;7.024;2024-02-28T07:33:10;101890.47;;;5.46;100.00
58534;BME280;44109;52.398;7.024;2024-02-28T07:35:44;101906.16;;;5.59;100.00
58534;BME280;44109;52.398;7.024;2024-02-28T07:38:14;101896.13;;;5.63;100.00
58534;BME280;44109;52.398;7.024;2024-02-28T07:40:43;101906.28;;;5.76;100.00
58534;BME280;44109;52.398;7.024;2024-02-28T07:43:11;101907.50;;;5.84;100.00
58534;BME280;44109;52.398;7.024;2024-02-28T07:45:39;101915.88;;;5.93;100.00
58534;BME280;44109;52.398;7.024;2024-02-28T07:48:07;101913.41;;;6.05;100.00
58534;BME280;44109;52.398;7.024;2024-02-28T07:50:35;101901.13;;;6.11;100.00
58534;BME280;44109;52.398;7.024;2024-02-28T07:53:04;101888.47;;;6.10;100.00
58534;BME280;44109;52.398;7.024;2024-02-28T07:55:33;101911.53;;;6.37;100.00
58534;BME280;44109;52.398;7.024;2024-02-28T07:58:02;101903.59;;;6.44;100.00
58534;BME280;44109;52.398;7.024;2024-02-28T08:00:31;101900.22;;;6.47;100.00
58534;BME280;44109;52.398;7.024;2024-02-28T08:03:00;101898.53;;;6.59;100.00
58534;BME280;44109;52.398;7.024;2024-02-28T08:05:28;101916.13;;;6.72;100.00
58534;BME280;44109;52.398;7.024;2024-02-28T08:07:57;101914.84;;;6.78;100.00
58534;BME280;44109;52.398;7.024;2024-02-28T08:10:26;101919.06;;;6.84;100.00
58534;BME280;44109;52.398;7.024;2024-02-28T08:12:57;101913.38;;;6.81;100.00
58534;BME280;44109;52.398;7.024;2024-02-28T08:15:25;101908.91;;;6.94;100.00
58534;BME280;44109;52.398;7.024;2024-02-28T08:17:54;101919.41;;;6.83;100.00
58534;BME280;44109;52.398;7.024;2024-02-28T08:20:21;101923.47;;;6.85;100.00
58534;BME280;44109;52.398;7.024;2024-02-28T08:22:51;101882.31;;;6.67;100.00
58534;BME280;44109;52.398;7.024;2024-02-28T08:25:19;101922.50;;;6.81;100.00
58534;BME280;44109;52.398;7.024;2024-02-28T08:27:48;101919.75;;;6.90;100.00
58534;BME280;44109;52.398;7.024;2024-02-28T08:30:17;101910.66;;;6.90;100.00
58534;BME280;44109;52.398;7.024;2024-02-28T08:32:45;101919.66;;;7.04;100.00
58534;BME280;44109;52.398;7.024;2024-02-28T08:35:13;101923.13;;;7.18;100.00
58534;BME280;44109;52.398;7.024;2024-02-28T08:37:43;101927.91;;;7.44;100.00
58534;BME280;44109;52.398;7.024;2024-02-28T08:40:11;101933.00;;;7.10;100.00
58534;BME280;44109;52.398;7.024;2024-02-28T08:42:41;101934.91;;;7.50;100.00
58534;BME280;44109;52.398;7.024;2024-02-28T08:45:12;101948.59;;;7.89;100.00
58534;BME280;44109;52.398;7.024;2024-02-28T08:47:41;101954.31;;;8.19;100.00
58534;BME280;44109;52.398;7.024;2024-02-28T08:50:16;101963.28;;;8.51;100.00
58534;BME280;44109;52.398;7.024;2024-02-28T08:52:44;101967.66;;;8.60;100.00
58534;BME280;44109;52.398;7.024;2024-02-28T08:55:12;101966.50;;;8.61;100.00
58534;BME280;44109;52.398;7.024;2024-02-28T08:57:44;101962.44;;;8.68;100.00
58534;BME280;44109;52.398;7.024;2024-02-28T09:00:13;101962.91;;;8.70;100.00
58534;BME280;44109;52.398;7.024;2024-02-28T09:02:43;101965.88;;;8.38;100.00
58534;BME280;44109;52.398;7.024;2024-02-28T09:05:11;101961.97;;;8.57;100.00
58534;BME280;44109;52.398;7.024;2024-02-28T09:07:39;101963.75;;;8.61;100.00
58534;BME280;44109;52.398;7.024;2024-02-28T09:10:08;101962.59;;;8.54;100.00
58534;BME280;44109;52.398;7.024;2024-02-28T09:12:37;101972.72;;;8.58;100.00
58534;BME280;44109;52.398;7.024;2024-02-28T09:15:06;101973.19;;;8.43;100.00
58534;BME280;44109;52.398;7.024;2024-02-28T09:17:37;101978.72;;;8.52;100.00
58534;BME280;44109;52.398;7.024;2024-02-28T09:20:10;101970.09;;;8.62;100.00
58534;BME280;44109;52.398;7.024;2024-02-28T09:22:39;101948.81;;;8.36;100.00
58534;BME280;44109;52.398;7.024;2024-02-28T09:25:07;101986.03;;;8.65;100.00
58534;BME280;44109;52.398;7.024;2024-02-28T09:27:35;101975.41;;;8.93;100.00
58534;BME280;44109;52.398;7.024;2024-02-28T09:30:04;101976.34;;;9.06;100.00
58534;BME280;44109;52.398;7.024;2024-02-28T09:32:34;101963.47;;;9.10;100.00
58534;BME280;44109;52.398;7.024;2024-02-28T09:35:02;101967.97;;;9.23;100.00
58534;BME280;44109;52.398;7.024;2024-02-28T09:37:32;101970.50;;;9.37;100.00
58534;BME280;44109;52.398;7.024;2024-02-28T09:40:00;101964.06;;;9.24;100.00
58534;BME280;44109;52.398;7.024;2024-02-28T09:42:29;101971.44;;;9.50;100.00
58534;BME280;44109;52.398;7.024;2024-02-28T09:45:00;101961.88;;;9.68;100.00
58534;BME280;44109;52.398;7.024;2024-02-28T09:47:30;101967.66;;;9.54;100.00
58534;BME280;44109;52.398;7.024;2024-02-28T09:50:02;101964.59;;;9.98;100.00
58534;BME280;44109;52.398;7.024;2024-02-28T09:52:33;101955.56;;;10.09;100.00
58534;BME280;44109;52.398;7.024;2024-02-28T09:55:02;101951.09;;;10.38;100.00
58534;BME280;44109;52.398;7.024;2024-02-28T09:57:31;101963.59;;;10.44;100.00
58534;BME280;44109;52.398;7.024;2024-02-28T10:00:01;101957.31;;;10.35;100.00
58534;BME280;44109;52.398;7.024;2024-02-28T10:02:30;101955.97;;;10.41;100.00
58534;BME280;44109;52.398;7.024;2024-02-28T10:05:01;101971.50;;;10.54;100.00
58534;BME280;44109;52.398;7.024;2024-02-28T10:07:30;101973.81;;;10.52;100.00
58534;BME280;44109;52.398;7.024;2024-02-28T10:10:00;101964.41;;;10.24;100.00
58534;BME280;44109;52.398;7.024;2024-02-28T10:12:30;101962.06;;;10.13;100.00
58534;BME280;44109;52.398;7.024;2024-02-28T10:15:00;101965.31;;;10.36;100.00
58534;BME280;44109;52.398;7.024;2024-02-28T10:17:30;101965.03;;;10.29;100.00
58534;BME280;44109;52.398;7.024;2024-02-28T10:19:58;101937.31;;;10.29;100.00
58534;BME280;44109;52.398;7.024;2024-02-28T10:22:26;101964.88;;;10.47;100.00
58534;BME280;44109;52.398;7.024;2024-02-28T10:24:57;101957.56;;;10.21;100.00
58534;BME280;44109;52.398;7.024;2024-02-28T10:27:26;101964.22;;;10.29;100.00
58534;BME280;44109;52.398;7.024;2024-02-28T10:29:54;101962.41;;;10.33;100.00
58534;BME280;44109;52.398;7.024;2024-02-28T10:32:22;101966.19;;;10.61;100.00
58534;BME280;44109;52.398;7.024;2024-02-28T10:34:50;101964.84;;;10.68;100.00
58534;BME280;44109;52.398;7.024;2024-02-28T10:37:21;101972.06;;;10.48;100.00
58534;BME280;44109;52.398;7.024;2024-02-28T10:39:51;101976.47;;;10.82;100.00
58534;BME280;44109;52.398;7.024;2024-02-28T10:42:23;101972.53;;;10.83;100.00
58534;BME280;44109;52.398;7.024;2024-02-28T10:44:59;101973.50;;;10.66;100.00
58534;BME280;44109;52.398;7.024;2024-02-28T10:47:29;101975.84;;;10.76;100.00
58534;BME280;44109;52.398;7.024;2024-02-28T10:49:59;101981.38;;;11.09;100.00
58534;BME280;44109;52.398;7.024;2024-02-28T10:52:27;101980.00;;;11.15;100.00
58534;BME280;44109;52.398;7.024;2024-02-28T10:55:02;101978.53;;;10.85;100.00
58534;BME280;44109;52.398;7.024;2024-02-28T10:57:38;101983.03;;;11.23;100.00
58534;BME280;44109;52.398;7.024;2024-02-28T11:00:09;101973.28;;;11.53;100.00
58534;BME280;44109;52.398;7.024;2024-02-28T11:02:39;101979.88;;;11.49;100.00
58534;BME280;44109;52.398;7.024;2024-02-28T11:05:09;101976.75;;;11.62;100.00
58534;BME280;44109;52.398;7.024;2024-02-28T11:07:40;101975.00;;;11.21;100.00
58534;BME280;44109;52.398;7.024;2024-02-28T11:10:10;101976.28;;;10.99;100.00
58534;BME280;44109;52.398;7.024;2024-02-28T11:12:41;101972.66;;;10.86;100.00
58534;BME280;44109;52.398;7.024;2024-02-28T11:15:16;101977.97;;;10.91;100.00
58534;BME280;44109;52.398;7.024;2024-02-28T11:17:44;101968.13;;;10.82;100.00
58534;BME280;44109;52.398;7.024;2024-02-28T11:20:17;101955.91;;;10.62;100.00
58534;BME280;44109;52.398;7.024;2024-02-28T11:22:56;101960.00;;;11.22;100.00
58534;BME280;44109;52.398;7.024;2024-02-28T11:25:25;101960.91;;;11.38;100.00
58534;BME280;44109;52.398;7.024;2024-02-28T11:27:54;101966.00;;;11.73;100.00
58534;BME280;44109;52.398;7.024;2024-02-28T11:30:24;101957.91;;;11.68;100.00
58534;BME280;44109;52.398;7.024;2024-02-28T11:32:52;101953.47;;;11.79;100.00
58534;BME280;44109;52.398;7.024;2024-02-28T11:35:19;101947.00;;;12.00;100.00
58534;BME280;44109;52.398;7.024;2024-02-28T11:37:47;101949.13;;;12.18;100.00
58534;BME280;44109;52.398;7.024;2024-02-28T11:40:20;101943.75;;;12.26;100.00
58534;BME280;44109;52.398;7.024;2024-02-28T11:42:48;101941.97;;;12.17;100.00
58534;BME280;44109;52.398;7.024;2024-02-28T11:45:19;101946.88;;;11.96;100.00
58534;BME280;44109;52.398;7.024;2024-02-28T11:47:48;101945.16;;;12.32;100.00
58534;BME280;44109;52.398;7.024;2024-02-28T11:50:17;101946.91;;;12.24;100.00
58534;BME280;44109;52.398;7.024;2024-02-28T11:52:45;101935.47;;;12.41;100.00
58534;BME280;44109;52.398;7.024;2024-02-28T11:55:14;101938.63;;;12.40;100.00
58534;BME280;44109;52.398;7.024;2024-02-28T11:57:42;101943.22;;;12.08;100.00
58534;BME280;44109;52.398;7.024;2024-02-28T12:00:12;101928.84;;;12.18;100.00
58534;BME280;44109;52.398;7.024;2024-02-28T12:02:44;101929.81;;;12.38;100.00
58534;BME280;44109;52.398;7.024;2024-02-28T12:05:13;101917.31;;;12.04;100.00
58534;BME280;44109;52.398;7.024;2024-02-28T12:07:42;101928.28;;;12.12;100.00
58534;BME280;44109;52.398;7.024;2024-02-28T12:10:10;101925.31;;;12.33;100.00
58534;BME280;44109;52.398;7.024;2024-02-28T12:12:39;101918.72;;;11.98;100.00
58534;BME280;44109;52.398;7.024;2024-02-28T12:15:07;101917.88;;;12.53;100.00
58534;BME280;44109;52.398;7.024;2024-02-28T12:17:37;101919.75;;;12.77;100.00
58534;BME280;44109;52.398;7.024;2024-02-28T12:20:08;101914.28;;;12.97;100.00
58534;BME280;44109;52.398;7.024;2024-02-28T12:22:37;101907.53;;;12.98;100.00
58534;BME280;44109;52.398;7.024;2024-02-28T12:25:06;101898.09;;;13.02;100.00
58534;BME280;44109;52.398;7.024;2024-02-28T12:27:35;101894.59;;;12.89;100.00
58534;BME280;44109;52.398;7.024;2024-02-28T12:30:03;101889.31;;;13.32;100.00
58534;BME280;44109;52.398;7.024;2024-02-28T12:32:52;101891.53;;;13.26;100.00
58534;BME280;44109;52.398;7.024;2024-02-28T12:35:21;101878.41;;;12.79;100.00
58534;BME280;44109;52.398;7.024;2024-02-28T12:37:50;101890.25;;;12.76;100.00
58534;BME280;44109;52.398;7.024;2024-02-28T12:40:18;101886.81;;;12.35;100.00
58534;BME280;44109;52.398;7.024;2024-02-28T12:42:46;101890.66;;;12.90;100.00
58534;BME280;44109;52.398;7.024;2024-02-28T12:45:14;101884.34;;;12.93;100.00
58534;BME280;44109;52.398;7.024;2024-02-28T12:47:42;101885.25;;;12.98;100.00
58534;BME280;44109;52.398;7.024;2024-02-28T12:50:09;101879.53;;;13.22;100.00
58534;BME280;44109;52.398;7.024;2024-02-28T12:52:39;101879.13;;;13.39;100.00
58534;BME280;44109;52.398;7.024;2024-02-28T12:55:07;101875.81;;;13.18;100.00
58534;BME280;44109;52.398;7.024;2024-02-28T12:57:35;101880.47;;;13.45;100.00